sensor_id;sensor_type;location;lat;lon;timestamp;temperature;humidity
2539;DHT22;1280;49.760;9.664;2023-01-19T00:01:29;-2.00;70.20
2539;DHT22;1280;49.760;9.664;2023-01-19T00:03:56;-2.00;70.10
2539;DHT22;1280;49.760;9.664;2023-01-19T00:06:24;-2.10;70.10
2539;DHT22;1280;49.760;9.664;2023-01-19T00:08:53;-2.10;70.10
2539;DHT22;1280;49.760;9.664;2023-01-19T00:11:21;-2.10;70.30
2539;DHT22;1280;49.760;9.664;2023-01-19T00:13:50;-2.10;70.20
2539;DHT22;1280;49.760;9.664;2023-01-19T00:16:20;-2.00;70.60
2539;DHT22;1280;49.760;9.664;2023-01-19T00:18:49;-1.90;70.80
2539;DHT22;1280;49.760;9.664;2023-01-19T00:21:18;-1.90;70.70
2539;DHT22;1280;49.760;9.664;2023-01-19T00:23:47;-1.80;70.70
2539;DHT22;1280;49.760;9.664;2023-01-19T00:26:17;-1.70;70.90
2539;DHT22;1280;49.760;9.664;2023-01-19T00:28:47;-1.60;70.80
2539;DHT22;1280;49.760;9.664;2023-01-19T00:31:18;-1.50;70.80
2539;DHT22;1280;49.760;9.664;2023-01-19T00:33:47;-1.50;70.70
2539;DHT22;1280;49.760;9.664;2023-01-19T00:36:17;-1.50;70.80
2539;DHT22;1280;49.760;9.664;2023-01-19T00:38:45;-1.40;71.00
2539;DHT22;1280;49.760;9.664;2023-01-19T00:41:13;-1.30;71.10
2539;DHT22;1280;49.760;9.664;2023-01-19T00:43:41;-1.20;71.00
2539;DHT22;1280;49.760;9.664;2023-01-19T00:46:09;-1.10;70.80
2539;DHT22;1280;49.760;9.664;2023-01-19T00:48:38;-1.20;70.70
2539;DHT22;1280;49.760;9.664;2023-01-19T00:51:06;-1.10;70.90
2539;DHT22;1280;49.760;9.664;2023-01-19T00:53:34;-1.10;70.80
2539;DHT22;1280;49.760;9.664;2023-01-19T00:56:02;-1.10;70.80
2539;DHT22;1280;49.760;9.664;2023-01-19T00:58:30;-1.10;70.90
2539;DHT22;1280;49.760;9.664;2023-01-19T01:00:58;-1.00;71.10
2539;DHT22;1280;49.760;9.664;2023-01-19T01:03:29;-0.90;71.10
2539;DHT22;1280;49.760;9.664;2023-01-19T01:05:59;-0.90;71.10
2539;DHT22;1280;49.760;9.664;2023-01-19T01:08:26;-0.90;70.80
2539;DHT22;1280;49.760;9.664;2023-01-19T01:10:54;-0.90;70.70
2539;DHT22;1280;49.760;9.664;2023-01-19T01:13:22;-0.90;70.70
2539;DHT22;1280;49.760;9.664;2023-01-19T01:15:54;-0.90;70.70
2539;DHT22;1280;49.760;9.664;2023-01-19T01:18:23;-1.00;70.60
2539;DHT22;1280;49.760;9.664;2023-01-19T01:20:51;-1.00;70.70
2539;DHT22;1280;49.760;9.664;2023-01-19T01:23:23;-1.00;70.80
2539;DHT22;1280;49.760;9.664;2023-01-19T01:25:51;-1.00;70.80
2539;DHT22;1280;49.760;9.664;2023-01-19T01:28:19;-1.00;70.90
2539;DHT22;1280;49.760;9.664;2023-01-19T01:30:48;-1.00;70.80
2539;DHT22;1280;49.760;9.664;2023-01-19T01:33:19;-1.00;70.90
2539;DHT22;1280;49.760;9.664;2023-01-19T01:36:07;-1.00;70.90
2539;DHT22;1280;49.760;9.664;2023-01-19T01:38:37;-1.00;70.80
2539;DHT22;1280;49.760;9.664;2023-01-19T01:41:05;-1.00;71.10
2539;DHT22;1280;49.760;9.664;2023-01-19T01:43:44;-0.90;71.20
2539;DHT22;1280;49.760;9.664;2023-01-19T01:46:13;-0.80;71.30
2539;DHT22;1280;49.760;9.664;2023-01-19T01:48:47;-0.80;71.20
2539;DHT22;1280;49.760;9.664;2023-01-19T01:51:22;-0.70;71.20
2539;DHT22;1280;49.760;9.664;2023-01-19T01:54:03;-0.70;71.20
2539;DHT22;1280;49.760;9.664;2023-01-19T01:56:35;-0.70;71.10
2539;DHT22;1280;49.760;9.664;2023-01-19T01:59:06;-0.70;71.00
2539;DHT22;1280;49.760;9.664;2023-01-19T02:01:35;-0.70;70.70
2539;DHT22;1280;49.760;9.664;2023-01-19T02:04:22;-0.70;70.80
2539;DHT22;1280;49.760;9.664;2023-01-19T02:06:50;-0.70;70.80
2539;DHT22;1280;49.760;9.664;2023-01-19T02:09:37;-0.70;70.80
2539;DHT22;1280;49.760;9.664;2023-01-19T02:12:23;-0.80;70.60
2539;DHT22;1280;49.760;9.664;2023-01-19T02:15:16;-0.90;70.60
2539;DHT22;1280;49.760;9.664;2023-01-19T02:17:44;-0.90;70.60
2539;DHT22;1280;49.760;9.664;2023-01-19T02:20:13;-1.00;70.50
2539;DHT22;1280;49.760;9.664;2023-01-19T02:22:45;-1.00;70.80
2539;DHT22;1280;49.760;9.664;2023-01-19T02:25:16;-1.00;71.00
2539;DHT22;1280;49.760;9.664;2023-01-19T02:27:46;-1.00;70.90
2539;DHT22;1280;49.760;9.664;2023-01-19T02:30:15;-1.00;70.70
2539;DHT22;1280;49.760;9.664;2023-01-19T02:32:43;-1.00;70.70
2539;DHT22;1280;49.760;9.664;2023-01-19T02:35:12;-1.10;70.70
2539;DHT22;1280;49.760;9.664;2023-01-19T02:37:41;-1.10;70.80
2539;DHT22;1280;49.760;9.664;2023-01-19T02:40:12;-1.10;70.90
2539;DHT22;1280;49.760;9.664;2023-01-19T02:42:45;-1.10;71.00
2539;DHT22;1280;49.760;9.664;2023-01-19T02:45:19;-1.10;70.80
2539;DHT22;1280;49.760;9.664;2023-01-19T02:47:50;-1.10;70.80
2539;DHT22;1280;49.760;9.664;2023-01-19T02:50:38;-1.20;70.50
2539;DHT22;1280;49.760;9.664;2023-01-19T02:56:13;-1.40;70.60
2539;DHT22;1280;49.760;9.664;2023-01-19T02:58:52;-1.50;70.60
2539;DHT22;1280;49.760;9.664;2023-01-19T03:01:26;-1.50;70.70
2539;DHT22;1280;49.760;9.664;2023-01-19T03:04:01;-1.50;70.90
2539;DHT22;1280;49.760;9.664;2023-01-19T03:06:42;-1.40;71.30
2539;DHT22;1280;49.760;9.664;2023-01-19T03:09:19;-1.30;71.50
2539;DHT22;1280;49.760;9.664;2023-01-19T03:11:54;-1.20;71.60
2539;DHT22;1280;49.760;9.664;2023-01-19T03:14:26;-1.10;71.60
2539;DHT22;1280;49.760;9.664;2023-01-19T03:16:57;-1.00;71.60
2539;DHT22;1280;49.760;9.664;2023-01-19T03:19:30;-0.90;71.70
2539;DHT22;1280;49.760;9.664;2023-01-19T03:22:02;-0.90;71.80
2539;DHT22;1280;49.760;9.664;2023-01-19T03:24:35;-0.80;71.90
2539;DHT22;1280;49.760;9.664;2023-01-19T03:27:09;-0.70;72.00
2539;DHT22;1280;49.760;9.664;2023-01-19T03:29:41;-0.70;71.90
2539;DHT22;1280;49.760;9.664;2023-01-19T03:32:13;-0.70;71.70
2539;DHT22;1280;49.760;9.664;2023-01-19T03:34:44;-0.70;72.00
2539;DHT22;1280;49.760;9.664;2023-01-19T03:37:14;-0.60;72.20
2539;DHT22;1280;49.760;9.664;2023-01-19T03:39:43;-0.50;72.30
2539;DHT22;1280;49.760;9.664;2023-01-19T03:42:13;-0.40;72.50
2539;DHT22;1280;49.760;9.664;2023-01-19T03:44:44;-0.30;72.30
2539;DHT22;1280;49.760;9.664;2023-01-19T03:47:16;-0.30;72.50
2539;DHT22;1280;49.760;9.664;2023-01-19T03:49:46;-0.20;72.40
2539;DHT22;1280;49.760;9.664;2023-01-19T03:52:15;-0.20;72.40
2539;DHT22;1280;49.760;9.664;2023-01-19T03:54:43;-0.10;72.50
2539;DHT22;1280;49.760;9.664;2023-01-19T03:57:11;-0.10;72.40
2539;DHT22;1280;49.760;9.664;2023-01-19T03:59:39;-0.10;72.40
2539;DHT22;1280;49.760;9.664;2023-01-19T04:02:08;0.00;72.50
2539;DHT22;1280;49.760;9.664;2023-01-19T04:04:36;0.00;72.60
2539;DHT22;1280;49.760;9.664;2023-01-19T04:07:08;0.00;72.60
2539;DHT22;1280;49.760;9.664;2023-01-19T04:09:36;0.00;72.40
2539;DHT22;1280;49.760;9.664;2023-01-19T04:12:04;0.00;72.40
2539;DHT22;1280;49.760;9.664;2023-01-19T04:14:32;0.00;72.60
2539;DHT22;1280;49.760;9.664;2023-01-19T04:17:00;0.00;72.60
2539;DHT22;1280;49.760;9.664;2023-01-19T04:19:29;0.00;72.70
2539;DHT22;1280;49.760;9.664;2023-01-19T04:21:57;0.00;72.80
2539;DHT22;1280;49.760;9.664;2023-01-19T04:24:25;0.00;72.80
2539;DHT22;1280;49.760;9.664;2023-01-19T04:26:53;0.10;72.90
2539;DHT22;1280;49.760;9.664;2023-01-19T04:29:21;0.10;72.90
2539;DHT22;1280;49.760;9.664;2023-01-19T04:31:50;0.10;73.00
2539;DHT22;1280;49.760;9.664;2023-01-19T04:34:17;0.10;73.10
2539;DHT22;1280;49.760;9.664;2023-01-19T04:36:47;0.20;73.20
2539;DHT22;1280;49.760;9.664;2023-01-19T04:39:16;0.20;73.20
2539;DHT22;1280;49.760;9.664;2023-01-19T04:41:44;0.20;73.10
2539;DHT22;1280;49.760;9.664;2023-01-19T04:44:12;0.30;73.30
2539;DHT22;1280;49.760;9.664;2023-01-19T04:46:40;0.30;73.40
2539;DHT22;1280;49.760;9.664;2023-01-19T04:49:08;0.40;73.40
2539;DHT22;1280;49.760;9.664;2023-01-19T04:51:36;0.40;73.30
2539;DHT22;1280;49.760;9.664;2023-01-19T04:54:05;0.40;73.30
2539;DHT22;1280;49.760;9.664;2023-01-19T04:56:35;0.40;73.40
2539;DHT22;1280;49.760;9.664;2023-01-19T04:59:03;0.40;73.40
2539;DHT22;1280;49.760;9.664;2023-01-19T05:01:31;0.40;73.50
2539;DHT22;1280;49.760;9.664;2023-01-19T05:03:59;0.40;73.50
2539;DHT22;1280;49.760;9.664;2023-01-19T05:06:29;0.50;73.70
2539;DHT22;1280;49.760;9.664;2023-01-19T05:08:57;0.50;73.60
2539;DHT22;1280;49.760;9.664;2023-01-19T05:11:26;0.40;73.40
2539;DHT22;1280;49.760;9.664;2023-01-19T05:13:54;0.40;73.60
2539;DHT22;1280;49.760;9.664;2023-01-19T05:16:22;0.40;73.80
2539;DHT22;1280;49.760;9.664;2023-01-19T05:18:50;0.50;73.80
2539;DHT22;1280;49.760;9.664;2023-01-19T05:21:18;0.50;73.90
2539;DHT22;1280;49.760;9.664;2023-01-19T05:23:46;0.50;74.00
2539;DHT22;1280;49.760;9.664;2023-01-19T05:26:14;0.60;74.10
2539;DHT22;1280;49.760;9.664;2023-01-19T05:28:43;0.60;74.10
2539;DHT22;1280;49.760;9.664;2023-01-19T05:31:11;0.60;74.30
2539;DHT22;1280;49.760;9.664;2023-01-19T05:33:39;0.70;74.20
2539;DHT22;1280;49.760;9.664;2023-01-19T05:36:08;0.80;74.30
2539;DHT22;1280;49.760;9.664;2023-01-19T05:38:36;0.80;74.40
2539;DHT22;1280;49.760;9.664;2023-01-19T05:41:04;0.90;74.30
2539;DHT22;1280;49.760;9.664;2023-01-19T05:43:32;0.90;74.40
2539;DHT22;1280;49.760;9.664;2023-01-19T05:46:02;1.00;74.30
2539;DHT22;1280;49.760;9.664;2023-01-19T05:48:30;1.00;74.40
2539;DHT22;1280;49.760;9.664;2023-01-19T05:50:58;1.00;74.30
2539;DHT22;1280;49.760;9.664;2023-01-19T05:53:27;1.00;74.30
2539;DHT22;1280;49.760;9.664;2023-01-19T05:55:58;1.00;74.20
2539;DHT22;1280;49.760;9.664;2023-01-19T05:58:27;1.00;74.20
2539;DHT22;1280;49.760;9.664;2023-01-19T06:00:55;0.90;74.30
2539;DHT22;1280;49.760;9.664;2023-01-19T06:03:24;0.90;74.30
2539;DHT22;1280;49.760;9.664;2023-01-19T06:05:54;0.90;74.30
2539;DHT22;1280;49.760;9.664;2023-01-19T06:08:23;0.90;74.30
2539;DHT22;1280;49.760;9.664;2023-01-19T06:10:51;0.90;74.40
2539;DHT22;1280;49.760;9.664;2023-01-19T06:13:19;0.90;74.40
2539;DHT22;1280;49.760;9.664;2023-01-19T06:15:47;0.90;74.50
2539;DHT22;1280;49.760;9.664;2023-01-19T06:18:15;0.90;74.50
2539;DHT22;1280;49.760;9.664;2023-01-19T06:20:44;0.90;74.50
2539;DHT22;1280;49.760;9.664;2023-01-19T06:23:12;1.00;74.60
2539;DHT22;1280;49.760;9.664;2023-01-19T06:25:40;1.00;74.70
2539;DHT22;1280;49.760;9.664;2023-01-19T06:28:08;1.00;74.70
2539;DHT22;1280;49.760;9.664;2023-01-19T06:30:37;1.00;74.80
2539;DHT22;1280;49.760;9.664;2023-01-19T06:33:06;1.00;74.90
2539;DHT22;1280;49.760;9.664;2023-01-19T06:35:34;1.10;74.90
2539;DHT22;1280;49.760;9.664;2023-01-19T06:38:03;1.10;74.90
2539;DHT22;1280;49.760;9.664;2023-01-19T06:40:31;1.10;74.90
2539;DHT22;1280;49.760;9.664;2023-01-19T06:42:59;1.10;74.80
2539;DHT22;1280;49.760;9.664;2023-01-19T06:45:28;1.10;74.90
2539;DHT22;1280;49.760;9.664;2023-01-19T06:47:56;1.10;74.90
2539;DHT22;1280;49.760;9.664;2023-01-19T06:50:24;1.10;74.90
2539;DHT22;1280;49.760;9.664;2023-01-19T06:52:51;1.20;74.90
2539;DHT22;1280;49.760;9.664;2023-01-19T06:55:21;1.20;75.00
2539;DHT22;1280;49.760;9.664;2023-01-19T06:57:56;1.20;75.00
2539;DHT22;1280;49.760;9.664;2023-01-19T07:00:24;1.20;75.10
2539;DHT22;1280;49.760;9.664;2023-01-19T07:02:52;1.20;75.10
2539;DHT22;1280;49.760;9.664;2023-01-19T07:05:20;1.30;75.20
2539;DHT22;1280;49.760;9.664;2023-01-19T07:07:52;1.30;75.10
2539;DHT22;1280;49.760;9.664;2023-01-19T07:10:23;1.30;75.10
2539;DHT22;1280;49.760;9.664;2023-01-19T07:12:51;1.30;75.10
2539;DHT22;1280;49.760;9.664;2023-01-19T07:15:19;1.30;75.10
2539;DHT22;1280;49.760;9.664;2023-01-19T07:17:47;1.30;75.00
2539;DHT22;1280;49.760;9.664;2023-01-19T07:20:16;1.30;75.00
2539;DHT22;1280;49.760;9.664;2023-01-19T07:22:45;1.20;75.00
2539;DHT22;1280;49.760;9.664;2023-01-19T07:25:13;1.20;75.10
2539;DHT22;1280;49.760;9.664;2023-01-19T07:27:42;1.20;75.00
2539;DHT22;1280;49.760;9.664;2023-01-19T07:30:11;1.20;74.90
2539;DHT22;1280;49.760;9.664;2023-01-19T07:32:41;1.10;74.90
2539;DHT22;1280;49.760;9.664;2023-01-19T07:35:09;1.10;74.90
2539;DHT22;1280;49.760;9.664;2023-01-19T07:37:37;1.10;74.80
2539;DHT22;1280;49.760;9.664;2023-01-19T07:40:06;1.00;74.90
2539;DHT22;1280;49.760;9.664;2023-01-19T07:42:34;1.00;75.00
2539;DHT22;1280;49.760;9.664;2023-01-19T07:45:04;1.00;75.00
2539;DHT22;1280;49.760;9.664;2023-01-19T07:47:32;1.00;75.10
2539;DHT22;1280;49.760;9.664;2023-01-19T07:50:00;1.00;75.20
2539;DHT22;1280;49.760;9.664;2023-01-19T07:52:29;1.10;75.40
2539;DHT22;1280;49.760;9.664;2023-01-19T07:54:56;1.10;75.50
2539;DHT22;1280;49.760;9.664;2023-01-19T07:57:24;1.20;75.50
2539;DHT22;1280;49.760;9.664;2023-01-19T07:59:53;1.20;75.50
2539;DHT22;1280;49.760;9.664;2023-01-19T08:02:22;1.30;75.60
2539;DHT22;1280;49.760;9.664;2023-01-19T08:04:51;1.30;75.60
2539;DHT22;1280;49.760;9.664;2023-01-19T08:07:19;1.40;75.50
2539;DHT22;1280;49.760;9.664;2023-01-19T08:09:47;1.40;75.60
2539;DHT22;1280;49.760;9.664;2023-01-19T08:12:15;1.40;75.60
2539;DHT22;1280;49.760;9.664;2023-01-19T08:14:43;1.50;75.60
2539;DHT22;1280;49.760;9.664;2023-01-19T08:17:12;1.50;75.60
2539;DHT22;1280;49.760;9.664;2023-01-19T08:19:42;1.50;75.70
2539;DHT22;1280;49.760;9.664;2023-01-19T08:22:10;1.50;75.80
2539;DHT22;1280;49.760;9.664;2023-01-19T08:24:38;1.60;75.80
2539;DHT22;1280;49.760;9.664;2023-01-19T08:27:06;1.60;75.80
2539;DHT22;1280;49.760;9.664;2023-01-19T08:29:35;1.60;75.80
2539;DHT22;1280;49.760;9.664;2023-01-19T08:32:04;1.70;75.80
2539;DHT22;1280;49.760;9.664;2023-01-19T08:34:32;1.70;75.80
2539;DHT22;1280;49.760;9.664;2023-01-19T08:37:01;1.70;75.80
2539;DHT22;1280;49.760;9.664;2023-01-19T08:39:29;1.70;75.70
2539;DHT22;1280;49.760;9.664;2023-01-19T08:41:57;1.80;75.70
2539;DHT22;1280;49.760;9.664;2023-01-19T08:44:26;1.80;75.70
2539;DHT22;1280;49.760;9.664;2023-01-19T08:46:54;1.80;75.80
2539;DHT22;1280;49.760;9.664;2023-01-19T08:49:22;1.80;75.80
2539;DHT22;1280;49.760;9.664;2023-01-19T08:51:50;1.90;75.90
2539;DHT22;1280;49.760;9.664;2023-01-19T08:54:19;1.90;75.90
2539;DHT22;1280;49.760;9.664;2023-01-19T08:56:48;1.90;75.90
2539;DHT22;1280;49.760;9.664;2023-01-19T08:59:16;1.90;76.00
2539;DHT22;1280;49.760;9.664;2023-01-19T09:01:44;2.00;76.10
2539;DHT22;1280;49.760;9.664;2023-01-19T09:04:12;2.00;76.10
2539;DHT22;1280;49.760;9.664;2023-01-19T09:06:40;2.10;76.20
2539;DHT22;1280;49.760;9.664;2023-01-19T09:09:08;2.10;76.30
2539;DHT22;1280;49.760;9.664;2023-01-19T09:11:38;2.10;76.30
2539;DHT22;1280;49.760;9.664;2023-01-19T09:14:06;2.20;76.30
2539;DHT22;1280;49.760;9.664;2023-01-19T09:16:34;2.20;76.30
2539;DHT22;1280;49.760;9.664;2023-01-19T09:19:02;2.30;76.30
2539;DHT22;1280;49.760;9.664;2023-01-19T09:21:30;2.30;76.40
2539;DHT22;1280;49.760;9.664;2023-01-19T09:23:58;2.30;76.50
2539;DHT22;1280;49.760;9.664;2023-01-19T09:26:26;2.40;76.50
2539;DHT22;1280;49.760;9.664;2023-01-19T09:28:55;2.40;76.50
2539;DHT22;1280;49.760;9.664;2023-01-19T09:31:25;2.40;76.40
2539;DHT22;1280;49.760;9.664;2023-01-19T09:33:53;2.50;76.50
2539;DHT22;1280;49.760;9.664;2023-01-19T09:36:20;2.40;76.50
2539;DHT22;1280;49.760;9.664;2023-01-19T09:38:48;2.50;76.60
2539;DHT22;1280;49.760;9.664;2023-01-19T09:41:19;2.50;76.50
2539;DHT22;1280;49.760;9.664;2023-01-19T09:43:52;2.50;76.60
2539;DHT22;1280;49.760;9.664;2023-01-19T09:46:28;2.50;76.70
2539;DHT22;1280;49.760;9.664;2023-01-19T09:49:00;2.50;76.70
2539;DHT22;1280;49.760;9.664;2023-01-19T09:51:34;2.60;76.70
2539;DHT22;1280;49.760;9.664;2023-01-19T09:54:10;2.60;76.70
2539;DHT22;1280;49.760;9.664;2023-01-19T09:56:38;2.60;76.70
2539;DHT22;1280;49.760;9.664;2023-01-19T09:59:19;2.60;76.70
2539;DHT22;1280;49.760;9.664;2023-01-19T10:02:10;2.60;76.80
2539;DHT22;1280;49.760;9.664;2023-01-19T10:04:42;2.70;76.70
2539;DHT22;1280;49.760;9.664;2023-01-19T10:07:17;2.70;76.70
2539;DHT22;1280;49.760;9.664;2023-01-19T10:10:06;2.70;76.80
2539;DHT22;1280;49.760;9.664;2023-01-19T10:12:42;2.70;76.90
2539;DHT22;1280;49.760;9.664;2023-01-19T10:15:18;2.80;77.00
2539;DHT22;1280;49.760;9.664;2023-01-19T10:17:55;2.80;77.00
2539;DHT22;1280;49.760;9.664;2023-01-19T10:20:29;2.80;77.00
2539;DHT22;1280;49.760;9.664;2023-01-19T10:22:59;2.90;77.00
2539;DHT22;1280;49.760;9.664;2023-01-19T10:25:29;2.90;77.00
2539;DHT22;1280;49.760;9.664;2023-01-19T10:28:03;2.90;76.90
2539;DHT22;1280;49.760;9.664;2023-01-19T10:30:31;2.90;76.90
2539;DHT22;1280;49.760;9.664;2023-01-19T10:33:01;2.90;76.90
2539;DHT22;1280;49.760;9.664;2023-01-19T10:35:30;2.90;76.90
2539;DHT22;1280;49.760;9.664;2023-01-19T10:38:00;2.90;76.80
2539;DHT22;1280;49.760;9.664;2023-01-19T10:40:32;2.80;76.80
2539;DHT22;1280;49.760;9.664;2023-01-19T10:43:40;2.80;76.90
2539;DHT22;1280;49.760;9.664;2023-01-19T10:46:19;2.80;77.00
2539;DHT22;1280;49.760;9.664;2023-01-19T10:48:50;2.80;77.00
2539;DHT22;1280;49.760;9.664;2023-01-19T10:51:19;2.80;77.20
2539;DHT22;1280;49.760;9.664;2023-01-19T10:53:56;2.90;77.10
2539;DHT22;1280;49.760;9.664;2023-01-19T10:56:28;2.90;77.00
2539;DHT22;1280;49.760;9.664;2023-01-19T10:58:59;2.90;77.00
2539;DHT22;1280;49.760;9.664;2023-01-19T11:01:28;2.90;77.00
2539;DHT22;1280;49.760;9.664;2023-01-19T11:03:58;2.80;77.20
2539;DHT22;1280;49.760;9.664;2023-01-19T11:06:32;2.80;77.20
2539;DHT22;1280;49.760;9.664;2023-01-19T11:09:14;2.90;77.10
2539;DHT22;1280;49.760;9.664;2023-01-19T11:11:46;2.90;77.10
2539;DHT22;1280;49.760;9.664;2023-01-19T11:14:18;2.90;77.20
2539;DHT22;1280;49.760;9.664;2023-01-19T11:16:49;2.80;77.30
2539;DHT22;1280;49.760;9.664;2023-01-19T11:19:24;2.90;77.20
2539;DHT22;1280;49.760;9.664;2023-01-19T11:22:08;2.90;77.30
2539;DHT22;1280;49.760;9.664;2023-01-19T11:24:38;2.90;77.30
2539;DHT22;1280;49.760;9.664;2023-01-19T11:27:06;2.90;77.30
2539;DHT22;1280;49.760;9.664;2023-01-19T11:29:35;2.90;77.30
2539;DHT22;1280;49.760;9.664;2023-01-19T11:32:19;2.90;77.40
2539;DHT22;1280;49.760;9.664;2023-01-19T11:34:51;3.00;77.40
2539;DHT22;1280;49.760;9.664;2023-01-19T11:37:28;3.00;77.40
2539;DHT22;1280;49.760;9.664;2023-01-19T11:39:57;3.00;77.50
2539;DHT22;1280;49.760;9.664;2023-01-19T11:42:28;3.00;77.50
2539;DHT22;1280;49.760;9.664;2023-01-19T11:45:01;3.10;77.40
2539;DHT22;1280;49.760;9.664;2023-01-19T11:47:37;3.10;77.40
2539;DHT22;1280;49.760;9.664;2023-01-19T11:50:14;3.10;77.50
2539;DHT22;1280;49.760;9.664;2023-01-19T11:52:50;3.10;77.50
2539;DHT22;1280;49.760;9.664;2023-01-19T11:55:23;3.10;77.50
2539;DHT22;1280;49.760;9.664;2023-01-19T11:57:52;3.10;77.40
2539;DHT22;1280;49.760;9.664;2023-01-19T12:00:26;3.10;77.50
2539;DHT22;1280;49.760;9.664;2023-01-19T12:02:59;3.10;77.50
2539;DHT22;1280;49.760;9.664;2023-01-19T12:05:33;3.20;77.60
2539;DHT22;1280;49.760;9.664;2023-01-19T12:08:04;3.20;77.50
2539;DHT22;1280;49.760;9.664;2023-01-19T12:10:38;3.20;77.50
2539;DHT22;1280;49.760;9.664;2023-01-19T12:13:18;3.20;77.50
2539;DHT22;1280;49.760;9.664;2023-01-19T12:15:50;3.30;77.60
2539;DHT22;1280;49.760;9.664;2023-01-19T12:18:21;3.30;77.50
2539;DHT22;1280;49.760;9.664;2023-01-19T12:20:54;3.30;77.50
2539;DHT22;1280;49.760;9.664;2023-01-19T12:23:30;3.30;77.60
2539;DHT22;1280;49.760;9.664;2023-01-19T12:26:15;3.30;77.50
2539;DHT22;1280;49.760;9.664;2023-01-19T12:28:50;3.30;77.50
2539;DHT22;1280;49.760;9.664;2023-01-19T12:31:20;3.30;77.60
2539;DHT22;1280;49.760;9.664;2023-01-19T12:33:49;3.30;77.50
2539;DHT22;1280;49.760;9.664;2023-01-19T12:36:37;3.30;77.50
2539;DHT22;1280;49.760;9.664;2023-01-19T12:39:19;3.30;77.60
2539;DHT22;1280;49.760;9.664;2023-01-19T12:41:47;3.30;77.50
2539;DHT22;1280;49.760;9.664;2023-01-19T12:44:26;3.30;77.50
2539;DHT22;1280;49.760;9.664;2023-01-19T12:46:57;3.30;77.50
2539;DHT22;1280;49.760;9.664;2023-01-19T12:49:32;3.30;77.60
2539;DHT22;1280;49.760;9.664;2023-01-19T12:52:19;3.30;77.60
2539;DHT22;1280;49.760;9.664;2023-01-19T12:54:52;3.30;77.60
2539;DHT22;1280;49.760;9.664;2023-01-19T12:57:25;3.30;77.70
2539;DHT22;1280;49.760;9.664;2023-01-19T12:59:56;3.40;77.70
2539;DHT22;1280;49.760;9.664;2023-01-19T13:02:41;3.40;77.80
2539;DHT22;1280;49.760;9.664;2023-01-19T13:05:17;3.40;77.80
2539;DHT22;1280;49.760;9.664;2023-01-19T13:08:16;3.50;77.70
2539;DHT22;1280;49.760;9.664;2023-01-19T13:11:16;3.50;77.80
2539;DHT22;1280;49.760;9.664;2023-01-19T13:17:01;3.50;77.70
2539;DHT22;1280;49.760;9.664;2023-01-19T13:19:43;3.50;77.60
2539;DHT22;1280;49.760;9.664;2023-01-19T13:22:51;3.50;77.60
2539;DHT22;1280;49.760;9.664;2023-01-19T13:25:33;3.50;77.70
2539;DHT22;1280;49.760;9.664;2023-01-19T13:28:07;3.40;77.60
2539;DHT22;1280;49.760;9.664;2023-01-19T13:30:47;3.40;77.60
2539;DHT22;1280;49.760;9.664;2023-01-19T13:33:20;3.40;77.60
2539;DHT22;1280;49.760;9.664;2023-01-19T13:35:53;3.40;77.60
2539;DHT22;1280;49.760;9.664;2023-01-19T13:38:22;3.40;77.70
2539;DHT22;1280;49.760;9.664;2023-01-19T13:40:52;3.40;77.70
2539;DHT22;1280;49.760;9.664;2023-01-19T13:43:25;3.40;77.80
2539;DHT22;1280;49.760;9.664;2023-01-19T13:45:55;3.50;77.80
2539;DHT22;1280;49.760;9.664;2023-01-19T13:48:23;3.50;77.80
2539;DHT22;1280;49.760;9.664;2023-01-19T13:50:57;3.50;77.80
2539;DHT22;1280;49.760;9.664;2023-01-19T13:53:25;3.50;77.80
2539;DHT22;1280;49.760;9.664;2023-01-19T13:56:08;3.50;77.70
2539;DHT22;1280;49.760;9.664;2023-01-19T13:58:36;3.60;77.70
2539;DHT22;1280;49.760;9.664;2023-01-19T14:01:04;3.50;77.60
2539;DHT22;1280;49.760;9.664;2023-01-19T14:03:33;3.50;77.70
2539;DHT22;1280;49.760;9.664;2023-01-19T14:06:01;3.60;77.70
2539;DHT22;1280;49.760;9.664;2023-01-19T14:08:29;3.60;77.70
2539;DHT22;1280;49.760;9.664;2023-01-19T14:11:00;3.60;77.60
2539;DHT22;1280;49.760;9.664;2023-01-19T14:13:31;3.60;77.60
2539;DHT22;1280;49.760;9.664;2023-01-19T14:16:04;3.50;77.70
2539;DHT22;1280;49.760;9.664;2023-01-19T14:18:33;3.50;77.70
2539;DHT22;1280;49.760;9.664;2023-01-19T14:21:03;3.60;77.70
2539;DHT22;1280;49.760;9.664;2023-01-19T14:23:45;3.60;77.70
2539;DHT22;1280;49.760;9.664;2023-01-19T14:26:39;3.60;77.70
2539;DHT22;1280;49.760;9.664;2023-01-19T14:29:20;3.60;77.60
2539;DHT22;1280;49.760;9.664;2023-01-19T14:31:50;3.60;77.60
2539;DHT22;1280;49.760;9.664;2023-01-19T14:34:32;3.50;77.60
2539;DHT22;1280;49.760;9.664;2023-01-19T14:37:01;3.50;77.70
2539;DHT22;1280;49.760;9.664;2023-01-19T14:39:32;3.50;77.70
2539;DHT22;1280;49.760;9.664;2023-01-19T14:42:03;3.50;77.70
2539;DHT22;1280;49.760;9.664;2023-01-19T14:44:36;3.50;77.60
2539;DHT22;1280;49.760;9.664;2023-01-19T14:47:05;3.50;77.70
2539;DHT22;1280;49.760;9.664;2023-01-19T14:49:35;3.50;77.80
2539;DHT22;1280;49.760;9.664;2023-01-19T14:52:14;3.50;77.70
2539;DHT22;1280;49.760;9.664;2023-01-19T14:54:45;3.50;77.80
2539;DHT22;1280;49.760;9.664;2023-01-19T14:57:14;3.50;77.80
2539;DHT22;1280;49.760;9.664;2023-01-19T14:59:43;3.50;77.70
2539;DHT22;1280;49.760;9.664;2023-01-19T15:02:15;3.40;77.80
2539;DHT22;1280;49.760;9.664;2023-01-19T15:04:44;3.40;77.80
2539;DHT22;1280;49.760;9.664;2023-01-19T15:07:16;3.40;77.90
2539;DHT22;1280;49.760;9.664;2023-01-19T15:09:45;3.40;77.90
2539;DHT22;1280;49.760;9.664;2023-01-19T15:12:15;3.40;78.00
2539;DHT22;1280;49.760;9.664;2023-01-19T15:14:45;3.40;78.00
2539;DHT22;1280;49.760;9.664;2023-01-19T15:17:16;3.40;78.00
2539;DHT22;1280;49.760;9.664;2023-01-19T15:19:52;3.40;78.00
2539;DHT22;1280;49.760;9.664;2023-01-19T15:22:20;3.40;78.10
2539;DHT22;1280;49.760;9.664;2023-01-19T15:24:49;3.40;78.10
2539;DHT22;1280;49.760;9.664;2023-01-19T15:27:17;3.40;78.10
2539;DHT22;1280;49.760;9.664;2023-01-19T15:29:48;3.40;78.00
2539;DHT22;1280;49.760;9.664;2023-01-19T15:32:16;3.40;78.10
2539;DHT22;1280;49.760;9.664;2023-01-19T15:34:45;3.40;78.10
2539;DHT22;1280;49.760;9.664;2023-01-19T15:37:13;3.40;78.20
2539;DHT22;1280;49.760;9.664;2023-01-19T15:39:41;3.40;78.20
2539;DHT22;1280;49.760;9.664;2023-01-19T15:42:10;3.30;78.20
2539;DHT22;1280;49.760;9.664;2023-01-19T15:44:39;3.30;78.20
2539;DHT22;1280;49.760;9.664;2023-01-19T15:47:09;3.30;78.30
2539;DHT22;1280;49.760;9.664;2023-01-19T15:49:37;3.30;78.40
2539;DHT22;1280;49.760;9.664;2023-01-19T15:52:05;3.30;78.40
2539;DHT22;1280;49.760;9.664;2023-01-19T15:54:33;3.30;78.50
2539;DHT22;1280;49.760;9.664;2023-01-19T15:57:01;3.30;78.40
2539;DHT22;1280;49.760;9.664;2023-01-19T15:59:28;3.30;78.50
2539;DHT22;1280;49.760;9.664;2023-01-19T16:01:56;3.30;78.50
2539;DHT22;1280;49.760;9.664;2023-01-19T16:04:26;3.30;78.50
2539;DHT22;1280;49.760;9.664;2023-01-19T16:06:54;3.30;78.50
2539;DHT22;1280;49.760;9.664;2023-01-19T16:09:22;3.30;78.60
2539;DHT22;1280;49.760;9.664;2023-01-19T16:11:53;3.30;78.70
2539;DHT22;1280;49.760;9.664;2023-01-19T16:14:21;3.30;78.70
2539;DHT22;1280;49.760;9.664;2023-01-19T16:16:49;3.30;78.70
2539;DHT22;1280;49.760;9.664;2023-01-19T16:19:17;3.30;78.80
2539;DHT22;1280;49.760;9.664;2023-01-19T16:21:46;3.30;78.80
2539;DHT22;1280;49.760;9.664;2023-01-19T16:24:14;3.30;78.80
2539;DHT22;1280;49.760;9.664;2023-01-19T16:26:42;3.30;78.80
2539;DHT22;1280;49.760;9.664;2023-01-19T16:29:10;3.30;78.90
2539;DHT22;1280;49.760;9.664;2023-01-19T16:31:41;3.40;79.10
2539;DHT22;1280;49.760;9.664;2023-01-19T16:34:09;3.40;79.20
2539;DHT22;1280;49.760;9.664;2023-01-19T16:36:39;3.50;79.30
2539;DHT22;1280;49.760;9.664;2023-01-19T16:39:10;3.60;79.40
2539;DHT22;1280;49.760;9.664;2023-01-19T16:41:39;3.60;79.40
2539;DHT22;1280;49.760;9.664;2023-01-19T16:44:09;3.70;79.40
2539;DHT22;1280;49.760;9.664;2023-01-19T16:46:39;3.70;79.50